createdAt,value
2022-07-29T00:02:25.654Z,1.70
2022-07-29T00:04:52.335Z,1.75
2022-07-29T00:07:19.008Z,1.83
2022-07-29T00:09:50.843Z,1.95
2022-07-29T00:12:21.443Z,1.73
2022-07-29T00:14:54.307Z,1.50
2022-07-29T00:17:20.853Z,1.67
2022-07-29T00:19:47.584Z,1.73
2022-07-29T00:22:14.185Z,1.80
2022-07-29T00:24:40.706Z,1.80
2022-07-29T00:27:07.535Z,1.60
2022-07-29T00:29:35.620Z,1.63
2022-07-29T00:32:03.505Z,1.40
2022-07-29T00:34:49.229Z,1.83
2022-07-29T00:37:15.775Z,1.90
2022-07-29T00:39:42.375Z,1.80
2022-07-29T00:42:09.224Z,1.85
2022-07-29T00:44:43.013Z,2.00
2022-07-29T00:47:11.508Z,1.85
2022-07-29T00:49:40.601Z,1.70
2022-07-29T00:52:08.776Z,1.77
2022-07-29T00:54:44.638Z,2.10
2022-07-29T00:57:12.613Z,2.20
2022-07-29T00:59:39.370Z,1.88
2022-07-29T01:02:06.139Z,1.83
2022-07-29T01:04:33.225Z,1.85
2022-07-29T01:07:02.087Z,2.00
2022-07-29T01:09:45.745Z,1.70
2022-07-29T01:12:18.396Z,1.90
2022-07-29T01:14:46.830Z,2.10
2022-07-29T01:17:21.719Z,2.00
2022-07-29T01:19:52.842Z,1.98
2022-07-29T01:22:42.155Z,2.20
2022-07-29T01:25:46.837Z,2.00
2022-07-29T01:28:52.111Z,3.33
2022-07-29T01:31:26.716Z,2.13
2022-07-29T01:34:00.199Z,2.00
2022-07-29T01:36:47.418Z,2.10
2022-07-29T01:39:28.332Z,2.10
2022-07-29T01:42:24.477Z,1.92
2022-07-29T01:45:00.189Z,2.28
2022-07-29T01:47:36.882Z,1.98
2022-07-29T01:50:08.340Z,2.17
2022-07-29T01:52:44.313Z,1.90
2022-07-29T01:55:15.412Z,2.15
2022-07-29T01:57:46.578Z,2.30
2022-07-29T02:00:14.115Z,2.25
2022-07-29T02:02:44.575Z,2.03
2022-07-29T02:05:15.754Z,2.13
2022-07-29T02:07:44.109Z,2.08
2022-07-29T02:10:13.403Z,1.98
2022-07-29T02:12:43.437Z,1.88
2022-07-29T02:15:17.677Z,1.90
2022-07-29T02:17:55.171Z,1.83
2022-07-29T02:20:25.820Z,2.03
2022-07-29T02:22:54.127Z,2.03
2022-07-29T02:25:23.235Z,1.90
2022-07-29T02:27:52.560Z,1.80
2022-07-29T02:30:22.766Z,2.20
2022-07-29T02:32:50.616Z,2.20
2022-07-29T02:35:18.079Z,2.20
2022-07-29T02:38:06.548Z,2.33
2022-07-29T02:40:37.395Z,2.13
2022-07-29T02:43:07.461Z,2.30
2022-07-29T02:45:37.582Z,2.25
2022-07-29T02:48:14.432Z,2.60
2022-07-29T02:50:51.233Z,2.50
2022-07-29T02:53:25.190Z,2.40
2022-07-29T02:56:01.052Z,2.20
2022-07-29T02:58:39.036Z,2.35
2022-07-29T03:01:15.690Z,2.40
2022-07-29T03:03:47.355Z,2.20
2022-07-29T03:06:28.023Z,2.30
2022-07-29T03:09:05.029Z,2.50
2022-07-29T03:11:46.242Z,2.50
2022-07-29T03:14:19.154Z,2.50
2022-07-29T03:16:46.644Z,2.17
2022-07-29T03:19:14.055Z,1.93
2022-07-29T03:21:40.728Z,2.60
2022-07-29T03:24:10.481Z,2.97
2022-07-29T03:26:38.682Z,2.40
2022-07-29T03:29:05.271Z,2.70
2022-07-29T03:31:33.387Z,2.50
2022-07-29T03:34:00.402Z,2.50
2022-07-29T03:36:27.095Z,2.33
2022-07-29T03:38:54.119Z,2.80
2022-07-29T03:41:23.245Z,2.67
2022-07-29T03:43:52.727Z,2.40
2022-07-29T03:46:23.476Z,2.50
2022-07-29T03:48:53.908Z,2.67
2022-07-29T03:51:33.309Z,2.47
2022-07-29T03:54:06.359Z,2.80
2022-07-29T03:56:40.677Z,2.47
2022-07-29T03:59:08.182Z,3.15
2022-07-29T04:01:35.770Z,3.10
2022-07-29T04:04:04.237Z,2.92
2022-07-29T04:06:40.141Z,2.65
2022-07-29T04:09:06.980Z,2.70
2022-07-29T04:12:02.124Z,2.67
2022-07-29T04:14:25.820Z,3.00
2022-07-29T04:16:53.918Z,3.17
2022-07-29T04:19:20.477Z,2.88
2022-07-29T04:21:47.058Z,2.87
2022-07-29T04:24:14.180Z,3.00
2022-07-29T04:26:41.020Z,2.90
2022-07-29T04:29:07.639Z,2.95
2022-07-29T04:31:34.378Z,2.90
2022-07-29T04:34:01.026Z,2.90
2022-07-29T04:36:29.578Z,2.83
2022-07-29T04:38:56.848Z,2.83
2022-07-29T04:41:23.450Z,2.90
2022-07-29T04:44:02.194Z,2.95
2022-07-29T04:46:29.148Z,3.20
2022-07-29T04:48:56.026Z,3.22
2022-07-29T04:51:22.739Z,2.95
2022-07-29T04:53:49.287Z,2.88
2022-07-29T04:56:15.865Z,3.05
2022-07-29T04:58:42.450Z,3.00
2022-07-29T05:01:09.164Z,2.85
2022-07-29T05:03:35.838Z,3.05
2022-07-29T05:06:02.458Z,2.92
2022-07-29T05:08:29.116Z,2.83
2022-07-29T05:10:55.668Z,2.97
2022-07-29T05:13:22.264Z,3.08
2022-07-29T05:15:49.142Z,3.30
2022-07-29T05:18:15.741Z,2.80
2022-07-29T05:20:42.336Z,3.20
2022-07-29T05:23:08.879Z,2.90
2022-07-29T05:25:43.689Z,2.78
2022-07-29T05:28:12.051Z,2.78
2022-07-29T05:30:40.130Z,3.05
2022-07-29T05:33:06.741Z,2.95
2022-07-29T05:35:33.438Z,2.80
2022-07-29T05:37:59.983Z,2.80
2022-07-29T05:40:26.530Z,2.80
2022-07-29T05:42:53.270Z,2.90
2022-07-29T05:45:19.841Z,2.60
2022-07-29T05:47:46.574Z,3.00
2022-07-29T05:50:13.342Z,3.00
2022-07-29T05:52:40.123Z,2.83
2022-07-29T05:55:07.006Z,3.08
2022-07-29T05:57:33.723Z,3.20
2022-07-29T06:00:00.442Z,2.70
2022-07-29T06:02:27.240Z,2.80
2022-07-29T06:04:54.012Z,3.35
2022-07-29T06:07:20.938Z,3.20
2022-07-29T06:09:47.578Z,3.22
2022-07-29T06:12:14.190Z,3.10
2022-07-29T06:14:41.151Z,3.30
2022-07-29T06:17:07.980Z,3.20
2022-07-29T06:19:38.877Z,3.15
2022-07-29T06:22:05.853Z,3.10
2022-07-29T06:24:32.537Z,3.10
2022-07-29T06:26:59.621Z,3.00
2022-07-29T06:29:26.209Z,2.78
2022-07-29T06:31:52.763Z,3.10
2022-07-29T06:34:20.212Z,3.35
2022-07-29T06:36:47.595Z,3.50
2022-07-29T06:39:15.701Z,3.63
2022-07-29T06:41:42.508Z,3.20
2022-07-29T06:44:09.139Z,3.60
2022-07-29T06:46:35.757Z,3.40
2022-07-29T06:49:03.374Z,2.97
2022-07-29T06:51:30.536Z,3.00
2022-07-29T06:54:02.412Z,3.00
2022-07-29T06:56:32.440Z,3.20
2022-07-29T06:59:06.518Z,3.22
2022-07-29T07:01:33.186Z,3.40
2022-07-29T07:04:00.146Z,2.90
2022-07-29T07:06:27.042Z,3.00
2022-07-29T07:08:53.643Z,3.08
2022-07-29T07:11:20.304Z,3.20
2022-07-29T07:13:46.932Z,3.70
2022-07-29T07:16:13.549Z,3.88
2022-07-29T07:18:40.726Z,3.70
2022-07-29T07:21:07.476Z,3.25
2022-07-29T07:23:34.070Z,3.67
2022-07-29T07:26:00.675Z,3.83
2022-07-29T07:28:27.218Z,3.70
2022-07-29T07:30:53.859Z,3.45
2022-07-29T07:33:20.515Z,3.58
2022-07-29T07:35:47.645Z,3.17
2022-07-29T07:38:14.464Z,3.50
2022-07-29T07:40:41.738Z,3.70
2022-07-29T07:43:08.356Z,3.53
2022-07-29T07:45:35.508Z,3.30
2022-07-29T07:48:02.156Z,3.60
2022-07-29T07:50:28.770Z,3.90
2022-07-29T07:52:59.289Z,3.67
2022-07-29T07:55:26.950Z,3.72
2022-07-29T07:57:54.517Z,3.38
2022-07-29T08:00:23.003Z,3.55
2022-07-29T08:02:51.903Z,4.50
2022-07-29T08:05:18.999Z,3.70
2022-07-29T08:07:50.732Z,3.70
2022-07-29T08:10:41.444Z,3.67
2022-07-29T08:13:09.893Z,3.55
2022-07-29T08:15:36.943Z,3.53
2022-07-29T08:18:08.493Z,3.65
2022-07-29T08:20:36.767Z,3.85
2022-07-29T08:23:05.397Z,4.13
2022-07-29T08:25:32.096Z,4.00
2022-07-29T08:28:00.157Z,3.50
2022-07-29T08:30:26.772Z,3.53
2022-07-29T08:32:55.179Z,3.78
2022-07-29T08:35:24.532Z,3.83
2022-07-29T08:37:53.186Z,3.60
2022-07-29T08:40:32.013Z,3.83
2022-07-29T08:43:00.669Z,3.72
2022-07-29T08:45:29.117Z,3.67
2022-07-29T08:47:56.674Z,3.33
2022-07-29T08:50:23.379Z,4.03
2022-07-29T08:52:57.936Z,3.37
2022-07-29T08:55:26.641Z,3.50
2022-07-29T08:57:54.347Z,3.30
2022-07-29T09:00:25.585Z,3.42
2022-07-29T09:02:59.320Z,2.97
2022-07-29T09:05:27.572Z,3.70
2022-07-29T09:07:54.631Z,4.03
2022-07-29T09:10:21.546Z,3.92
2022-07-29T09:12:52.417Z,3.63
2022-07-29T09:15:19.639Z,3.97
2022-07-29T09:17:51.451Z,3.50
2022-07-29T09:20:20.196Z,3.30
2022-07-29T09:22:52.541Z,3.97
2022-07-29T09:25:39.297Z,3.80
2022-07-29T09:28:10.836Z,3.47
2022-07-29T09:30:53.317Z,3.77
2022-07-29T09:33:20.634Z,3.70
2022-07-29T09:35:56.543Z,3.85
2022-07-29T09:38:23.738Z,3.65
2022-07-29T09:41:06.084Z,3.72
2022-07-29T09:43:33.737Z,3.43
2022-07-29T09:46:14.363Z,3.47
2022-07-29T09:48:42.397Z,4.00
2022-07-29T09:51:27.026Z,3.72
2022-07-29T09:54:23.580Z,3.70
2022-07-29T09:56:53.849Z,3.60
2022-07-29T09:59:27.402Z,3.60
2022-07-29T10:01:55.020Z,3.50
2022-07-29T10:04:22.080Z,3.72
2022-07-29T10:07:04.694Z,4.05
2022-07-29T10:09:32.977Z,3.80
2022-07-29T10:12:15.377Z,3.70
2022-07-29T10:14:43.549Z,3.58
2022-07-29T10:17:12.525Z,2.92
2022-07-29T10:19:42.444Z,3.67
2022-07-29T10:22:10.621Z,3.20
2022-07-29T10:24:38.841Z,3.55
2022-07-29T10:27:07.911Z,4.13
2022-07-29T10:29:35.135Z,3.15
2022-07-29T10:32:07.840Z,3.63
2022-07-29T10:35:13.350Z,4.10
2022-07-29T10:37:46.164Z,3.47
2022-07-29T10:40:43.905Z,3.35
2022-07-29T10:43:27.135Z,3.28
2022-07-29T10:45:59.313Z,3.50
2022-07-29T10:48:26.345Z,3.30
2022-07-29T10:50:56.114Z,3.40
2022-07-29T10:53:24.760Z,3.30
2022-07-29T10:55:54.746Z,3.15
2022-07-29T10:58:26.335Z,3.08
2022-07-29T11:00:54.933Z,3.23
2022-07-29T11:03:50.875Z,3.63
2022-07-29T11:06:26.682Z,3.58
2022-07-29T11:09:34.864Z,3.42
2022-07-29T11:12:04.967Z,3.10
2022-07-29T11:15:09.220Z,3.50
2022-07-29T11:18:01.417Z,3.45
2022-07-29T11:20:45.919Z,2.55
2022-07-29T11:23:40.306Z,3.35
2022-07-29T11:29:06.680Z,2.10
2022-07-29T11:31:36.010Z,2.30
2022-07-29T11:34:23.742Z,2.80
2022-07-29T11:37:10.385Z,2.30
2022-07-29T11:39:45.000Z,2.65
2022-07-29T11:42:28.457Z,2.37
2022-07-29T11:48:27.827Z,2.28
2022-07-29T11:50:52.831Z,2.05
2022-07-29T11:53:19.661Z,1.77
2022-07-29T11:55:54.237Z,2.43
2022-07-29T11:58:25.095Z,2.75
2022-07-29T12:00:53.270Z,1.80
2022-07-29T12:03:35.349Z,1.85
2022-07-29T12:06:04.603Z,2.00
2022-07-29T12:07:02.021Z,2.20
2022-07-29T12:08:42.880Z,2.10
2022-07-29T12:11:17.686Z,2.20
2022-07-29T12:13:49.233Z,2.00
2022-07-29T12:16:25.819Z,2.20
2022-07-29T12:19:04.644Z,1.85
2022-07-29T12:22:01.025Z,2.00
2022-07-29T12:24:45.399Z,1.70
2022-07-29T12:27:13.060Z,2.00
2022-07-29T12:29:42.008Z,2.10
2022-07-29T12:32:19.722Z,2.00
2022-07-29T12:34:46.938Z,1.80
2022-07-29T12:37:13.689Z,1.50
2022-07-29T12:39:40.902Z,1.90
2022-07-29T12:42:18.795Z,1.83
2022-07-29T12:44:54.629Z,2.13
2022-07-29T12:47:22.100Z,1.90
2022-07-29T12:50:07.985Z,1.92
2022-07-29T12:52:35.827Z,2.30
2022-07-29T12:55:02.965Z,1.75
2022-07-29T12:57:30.319Z,2.05
2022-07-29T13:00:10.363Z,1.90
2022-07-29T13:02:39.360Z,1.88
2022-07-29T13:05:07.695Z,2.10
2022-07-29T13:07:55.724Z,2.00
2022-07-29T13:10:24.885Z,1.75
2022-07-29T13:13:11.388Z,1.90
2022-07-29T13:15:43.482Z,2.00
2022-07-29T13:18:33.489Z,2.20
2022-07-29T13:21:12.968Z,1.80
2022-07-29T13:23:39.899Z,2.17
2022-07-29T13:26:08.434Z,2.43
2022-07-29T13:28:35.286Z,2.53
2022-07-29T13:31:02.308Z,2.40
2022-07-29T13:33:28.909Z,1.90
2022-07-29T13:35:55.479Z,2.20
2022-07-29T13:38:21.980Z,1.90
2022-07-29T13:40:58.373Z,1.85
2022-07-29T13:43:25.032Z,2.00
2022-07-29T13:45:54.955Z,1.80
2022-07-29T13:48:21.798Z,2.20
2022-07-29T13:50:51.568Z,1.90
2022-07-29T13:53:18.246Z,1.90
2022-07-29T13:55:45.241Z,1.90
2022-07-29T13:58:11.811Z,2.00
2022-07-29T14:00:38.335Z,2.38
2022-07-29T14:03:05.060Z,2.20
2022-07-29T14:05:31.613Z,2.03
2022-07-29T14:07:58.203Z,2.20
2022-07-29T14:10:24.814Z,2.00
2022-07-29T14:12:51.739Z,2.03
2022-07-29T14:15:18.368Z,2.03
2022-07-29T14:17:45.609Z,1.90
2022-07-29T14:20:12.276Z,2.17
2022-07-29T14:22:42.317Z,2.10
2022-07-29T14:25:14.497Z,2.58
2022-07-29T14:27:42.849Z,2.20
2022-07-29T14:30:10.125Z,2.70
2022-07-29T14:32:36.682Z,2.50
2022-07-29T14:35:03.813Z,2.50
2022-07-29T14:37:39.364Z,2.58
2022-07-29T14:40:08.398Z,2.13
2022-07-29T14:42:35.079Z,2.10
2022-07-29T14:45:01.665Z,2.40
2022-07-29T14:47:28.407Z,2.22
2022-07-29T14:49:55.001Z,2.63
2022-07-29T14:52:21.788Z,2.20
2022-07-29T14:54:55.662Z,2.25
2022-07-29T14:57:22.254Z,2.70
2022-07-29T14:59:51.553Z,2.47
2022-07-29T15:02:18.198Z,2.35
2022-07-29T15:04:47.303Z,2.57
2022-07-29T15:07:13.892Z,3.20
2022-07-29T15:09:49.809Z,3.00
2022-07-29T15:12:19.312Z,2.60
2022-07-29T15:14:46.125Z,2.90
2022-07-29T15:17:14.074Z,2.23
2022-07-29T15:19:44.961Z,2.70
2022-07-29T15:22:11.789Z,2.85
2022-07-29T15:24:38.398Z,2.60
2022-07-29T15:27:05.183Z,3.10
2022-07-29T15:29:31.746Z,3.00
2022-07-29T15:31:58.507Z,4.15
2022-07-29T15:34:25.476Z,3.50
2022-07-29T15:36:53.980Z,3.10
2022-07-29T15:39:22.347Z,3.30
2022-07-29T15:41:53.427Z,6.87
2022-07-29T15:44:21.048Z,4.15
2022-07-29T15:47:03.556Z,2.70
2022-07-29T15:49:47.497Z,2.47
2022-07-29T15:52:25.676Z,2.35
2022-07-29T15:54:57.606Z,2.50
2022-07-29T15:57:24.947Z,5.20
2022-07-29T15:59:53.308Z,3.20
2022-07-29T16:02:20.004Z,2.83
2022-07-29T16:04:47.285Z,2.72
2022-07-29T16:07:31.292Z,2.70
2022-07-29T16:09:59.297Z,47.28
2022-07-29T16:12:25.880Z,4.90
2022-07-29T16:14:53.155Z,2.70
2022-07-29T16:17:21.304Z,2.85
2022-07-29T16:19:51.627Z,2.92
2022-07-29T16:22:18.286Z,2.70
2022-07-29T16:24:51.788Z,2.30
2022-07-29T16:27:27.042Z,2.37
2022-07-29T16:30:02.252Z,2.83
2022-07-29T16:32:28.864Z,3.42
2022-07-29T16:34:55.377Z,6.13
2022-07-29T16:37:22.334Z,4.50
2022-07-29T16:39:52.088Z,4.28
2022-07-29T16:42:36.896Z,4.40
2022-07-29T16:45:05.617Z,5.50
2022-07-29T16:47:32.386Z,4.55
2022-07-29T16:49:58.928Z,3.05
2022-07-29T16:52:25.815Z,4.05
2022-07-29T16:54:53.395Z,3.30
2022-07-29T16:57:27.876Z,2.58
2022-07-29T16:59:54.417Z,3.42
2022-07-29T17:02:21.046Z,3.05
2022-07-29T17:04:47.687Z,4.35
2022-07-29T17:07:14.925Z,3.10
2022-07-29T17:09:41.618Z,4.13
2022-07-29T17:12:08.558Z,4.30
2022-07-29T17:14:35.118Z,2.70
2022-07-29T17:17:03.008Z,2.42
2022-07-29T17:19:32.492Z,2.80
2022-07-29T17:22:08.404Z,2.40
2022-07-29T17:24:35.913Z,3.57
2022-07-29T17:27:02.488Z,3.83
2022-07-29T17:29:31.497Z,4.63
2022-07-29T17:31:59.570Z,3.00
2022-07-29T17:34:26.420Z,2.40
2022-07-29T17:36:56.734Z,2.33
2022-07-29T17:39:24.071Z,2.30
2022-07-29T17:41:54.020Z,2.20
2022-07-29T17:44:20.748Z,2.40
2022-07-29T17:46:47.760Z,2.63
2022-07-29T17:49:14.553Z,2.73
2022-07-29T17:51:41.493Z,2.63
2022-07-29T17:54:08.064Z,2.22
2022-07-29T17:56:34.681Z,2.30
2022-07-29T17:59:06.362Z,2.38
2022-07-29T18:01:33.873Z,2.00
2022-07-29T18:04:00.563Z,2.00
2022-07-29T18:06:27.272Z,2.28
2022-07-29T18:08:54.244Z,2.30
2022-07-29T18:11:21.596Z,2.38
2022-07-29T18:13:51.247Z,2.20
2022-07-29T18:16:18.615Z,2.13
2022-07-29T18:18:45.527Z,2.25
2022-07-29T18:21:12.805Z,2.25
2022-07-29T18:23:39.435Z,2.60
2022-07-29T18:26:05.986Z,1.97
2022-07-29T18:28:32.832Z,2.45
2022-07-29T18:31:00.663Z,2.53
2022-07-29T18:33:27.842Z,2.50
2022-07-29T18:36:11.282Z,2.15
2022-07-29T18:38:42.164Z,2.00
2022-07-29T18:41:08.768Z,2.50
2022-07-29T18:43:35.536Z,2.13
2022-07-29T18:46:02.590Z,2.45
2022-07-29T18:48:29.198Z,3.42
2022-07-29T18:50:55.770Z,2.40
2022-07-29T18:53:22.327Z,2.35
2022-07-29T18:55:51.458Z,2.25
2022-07-29T18:58:18.008Z,2.47
2022-07-29T19:00:45.298Z,2.28
2022-07-29T19:03:11.998Z,2.60
2022-07-29T19:05:38.700Z,2.15
2022-07-29T19:08:06.409Z,2.40
2022-07-29T19:10:33.001Z,2.40
2022-07-29T19:12:59.603Z,2.08
2022-07-29T19:15:26.343Z,2.37
2022-07-29T19:17:54.748Z,2.60
2022-07-29T19:20:24.325Z,2.30
2022-07-29T19:22:50.988Z,2.60
2022-07-29T19:25:19.534Z,2.33
2022-07-29T19:27:48.286Z,2.47
2022-07-29T19:30:17.338Z,2.45
2022-07-29T19:32:43.926Z,2.50
2022-07-29T19:35:28.460Z,2.63
2022-07-29T19:37:56.518Z,2.53
2022-07-29T19:40:23.388Z,2.63
2022-07-29T19:42:51.687Z,2.63
2022-07-29T19:45:21.577Z,2.65
2022-07-29T19:47:52.461Z,3.20
2022-07-29T19:50:19.681Z,3.05
2022-07-29T19:52:47.549Z,3.27
2022-07-29T19:55:15.086Z,3.05
2022-07-29T19:57:42.009Z,3.15
2022-07-29T20:00:11.092Z,3.33
2022-07-29T20:02:39.340Z,3.20
2022-07-29T20:05:07.288Z,3.47
2022-07-29T20:07:34.303Z,4.20
2022-07-29T20:10:01.165Z,3.50
2022-07-29T20:12:28.278Z,3.05
2022-07-29T20:14:54.896Z,3.72
2022-07-29T20:17:22.419Z,3.50
2022-07-29T20:19:53.275Z,3.92
2022-07-29T20:22:21.191Z,3.60
2022-07-29T20:24:53.784Z,4.55
2022-07-29T20:27:20.750Z,4.50
2022-07-29T20:29:47.845Z,3.87
2022-07-29T20:32:14.591Z,4.30
2022-07-29T20:34:41.498Z,4.38
2022-07-29T20:37:13.336Z,4.97
2022-07-29T20:39:41.282Z,4.55
2022-07-29T20:42:08.005Z,4.73
2022-07-29T20:44:34.927Z,4.93
2022-07-29T20:47:03.225Z,5.05
2022-07-29T20:49:30.137Z,5.30
2022-07-29T20:51:56.921Z,5.68
2022-07-29T20:54:23.623Z,5.27
2022-07-29T20:56:52.082Z,5.50
2022-07-29T20:59:18.774Z,5.88
2022-07-29T21:01:46.069Z,5.25
2022-07-29T21:04:12.821Z,5.78
2022-07-29T21:06:39.365Z,5.30
2022-07-29T21:09:05.968Z,5.40
2022-07-29T21:11:44.292Z,5.18
2022-07-29T21:14:22.449Z,7.53
2022-07-29T21:16:53.495Z,5.38
2022-07-29T21:19:20.075Z,5.60
2022-07-29T21:21:46.605Z,6.25
2022-07-29T21:24:13.147Z,7.45
2022-07-29T21:26:39.700Z,5.90
2022-07-29T21:29:06.627Z,5.82
2022-07-29T21:31:33.355Z,6.10
2022-07-29T21:33:59.860Z,6.13
2022-07-29T21:36:47.669Z,5.65
2022-07-29T21:39:12.899Z,6.25
2022-07-29T21:41:39.509Z,6.45
2022-07-29T21:44:06.054Z,5.87
2022-07-29T21:46:32.653Z,6.95
2022-07-29T21:48:59.309Z,6.25
2022-07-29T21:51:25.936Z,6.18
2022-07-29T21:53:53.339Z,6.75
2022-07-29T21:56:20.037Z,7.10
2022-07-29T21:58:49.412Z,7.95
2022-07-29T22:01:15.968Z,7.20
2022-07-29T22:03:42.586Z,8.10
2022-07-29T22:06:09.125Z,8.00
2022-07-29T22:08:45.782Z,8.27
2022-07-29T22:11:13.014Z,8.10
2022-07-29T22:13:39.581Z,8.30
2022-07-29T22:16:06.623Z,7.95
2022-07-29T22:18:33.204Z,8.18
2022-07-29T22:20:59.753Z,8.57
2022-07-29T22:23:26.319Z,8.35
2022-07-29T22:25:53.383Z,8.95
2022-07-29T22:28:19.928Z,9.73
2022-07-29T22:30:46.634Z,9.40
2022-07-29T22:33:16.902Z,9.70
2022-07-29T22:35:44.721Z,9.82
2022-07-29T22:38:12.281Z,9.20
2022-07-29T22:40:38.927Z,9.57
2022-07-29T22:43:06.399Z,9.77
2022-07-29T22:45:33.293Z,9.80
2022-07-29T22:47:59.882Z,10.38
2022-07-29T22:50:29.770Z,9.88
2022-07-29T22:52:56.760Z,10.40
2022-07-29T22:55:23.351Z,10.80
2022-07-29T22:57:56.187Z,11.43
2022-07-29T23:00:22.813Z,11.73
2022-07-29T23:02:55.860Z,11.60
2022-07-29T23:05:22.774Z,12.25
2022-07-29T23:07:53.419Z,12.85
2022-07-29T23:10:23.288Z,11.70
2022-07-29T23:12:54.141Z,11.93
2022-07-29T23:15:20.894Z,11.43
2022-07-29T23:17:52.325Z,11.95
2022-07-29T23:20:19.162Z,10.95
2022-07-29T23:22:45.803Z,12.30
2022-07-29T23:25:12.440Z,12.07
2022-07-29T23:27:39.011Z,12.20
2022-07-29T23:30:06.168Z,12.57
2022-07-29T23:32:33.249Z,12.07
2022-07-29T23:34:59.828Z,12.10
2022-07-29T23:37:27.067Z,12.23
2022-07-29T23:39:55.895Z,11.93
2022-07-29T23:42:22.709Z,11.65
2022-07-29T23:44:56.712Z,11.48
2022-07-29T23:47:23.276Z,11.43
2022-07-29T23:49:52.988Z,10.48
2022-07-29T23:52:19.538Z,10.82
2022-07-29T23:54:46.248Z,10.98
2022-07-29T23:57:13.094Z,10.65
2022-07-29T23:59:39.724Z,10.90
